sensor_id;sensor_type;location;lat;lon;timestamp;P1;durP1;ratioP1;P2;durP2;ratioP2
7527;SDS011;3805;49.006;8.514;2023-04-15T00:02:12;6.20;;;5.60;;
7527;SDS011;3805;49.006;8.514;2023-04-15T00:05:02;7.90;;;6.07;;
7527;SDS011;3805;49.006;8.514;2023-04-15T00:07:50;7.30;;;4.83;;
7527;SDS011;3805;49.006;8.514;2023-04-15T00:10:41;5.27;;;4.80;;
7527;SDS011;3805;49.006;8.514;2023-04-15T00:13:30;5.97;;;5.30;;
7527;SDS011;3805;49.006;8.514;2023-04-15T00:16:20;5.67;;;5.13;;
7527;SDS011;3805;49.006;8.514;2023-04-15T00:19:08;5.43;;;4.97;;
7527;SDS011;3805;49.006;8.514;2023-04-15T00:21:57;5.70;;;5.30;;
7527;SDS011;3805;49.006;8.514;2023-04-15T00:24:47;5.60;;;5.10;;
7527;SDS011;3805;49.006;8.514;2023-04-15T00:27:37;5.10;;;4.70;;
7527;SDS011;3805;49.006;8.514;2023-04-15T00:30:25;6.93;;;4.90;;
7527;SDS011;3805;49.006;8.514;2023-04-15T00:33:14;4.13;;;3.60;;
7527;SDS011;3805;49.006;8.514;2023-04-15T00:36:04;6.30;;;4.93;;
7527;SDS011;3805;49.006;8.514;2023-04-15T00:38:54;5.60;;;4.83;;
7527;SDS011;3805;49.006;8.514;2023-04-15T00:41:43;5.20;;;4.80;;
7527;SDS011;3805;49.006;8.514;2023-04-15T00:44:33;5.40;;;4.90;;
7527;SDS011;3805;49.006;8.514;2023-04-15T00:47:21;6.17;;;5.03;;
7527;SDS011;3805;49.006;8.514;2023-04-15T00:50:11;4.40;;;4.13;;
7527;SDS011;3805;49.006;8.514;2023-04-15T00:52:59;6.23;;;4.80;;
7527;SDS011;3805;49.006;8.514;2023-04-15T00:55:48;6.03;;;4.37;;
7527;SDS011;3805;49.006;8.514;2023-04-15T00:58:37;5.37;;;4.83;;
7527;SDS011;3805;49.006;8.514;2023-04-15T01:01:27;4.90;;;4.00;;
7527;SDS011;3805;49.006;8.514;2023-04-15T01:04:15;4.87;;;4.40;;
7527;SDS011;3805;49.006;8.514;2023-04-15T01:07:04;7.13;;;4.17;;
7527;SDS011;3805;49.006;8.514;2023-04-15T01:09:52;4.90;;;4.50;;
7527;SDS011;3805;49.006;8.514;2023-04-15T01:12:41;5.53;;;4.40;;
7527;SDS011;3805;49.006;8.514;2023-04-15T01:15:30;6.13;;;4.50;;
7527;SDS011;3805;49.006;8.514;2023-04-15T01:18:21;6.40;;;4.93;;
7527;SDS011;3805;49.006;8.514;2023-04-15T01:21:09;6.27;;;5.53;;
7527;SDS011;3805;49.006;8.514;2023-04-15T01:23:58;5.23;;;4.70;;
7527;SDS011;3805;49.006;8.514;2023-04-15T01:26:48;4.37;;;3.97;;
7527;SDS011;3805;49.006;8.514;2023-04-15T01:29:38;6.03;;;5.40;;
7527;SDS011;3805;49.006;8.514;2023-04-15T01:32:26;5.23;;;4.33;;
7527;SDS011;3805;49.006;8.514;2023-04-15T01:35:15;5.40;;;4.80;;
7527;SDS011;3805;49.006;8.514;2023-04-15T01:38:04;6.13;;;4.67;;
7527;SDS011;3805;49.006;8.514;2023-04-15T01:40:53;5.10;;;4.60;;
7527;SDS011;3805;49.006;8.514;2023-04-15T01:43:43;5.57;;;4.43;;
7527;SDS011;3805;49.006;8.514;2023-04-15T01:46:32;4.50;;;4.10;;
7527;SDS011;3805;49.006;8.514;2023-04-15T01:49:21;8.33;;;5.17;;
7527;SDS011;3805;49.006;8.514;2023-04-15T01:52:10;5.30;;;4.50;;
7527;SDS011;3805;49.006;8.514;2023-04-15T01:54:58;5.43;;;4.93;;
7527;SDS011;3805;49.006;8.514;2023-04-15T01:57:47;5.00;;;4.10;;
7527;SDS011;3805;49.006;8.514;2023-04-15T02:00:36;6.20;;;4.77;;
7527;SDS011;3805;49.006;8.514;2023-04-15T02:03:25;4.03;;;3.70;;
7527;SDS011;3805;49.006;8.514;2023-04-15T02:06:14;4.63;;;4.33;;
7527;SDS011;3805;49.006;8.514;2023-04-15T02:09:02;6.50;;;4.30;;
7527;SDS011;3805;49.006;8.514;2023-04-15T02:11:51;5.57;;;4.50;;
7527;SDS011;3805;49.006;8.514;2023-04-15T02:14:40;5.60;;;4.20;;
7527;SDS011;3805;49.006;8.514;2023-04-15T02:17:32;5.50;;;5.00;;
7527;SDS011;3805;49.006;8.514;2023-04-15T02:20:21;4.97;;;4.47;;
7527;SDS011;3805;49.006;8.514;2023-04-15T02:23:10;6.20;;;4.03;;
7527;SDS011;3805;49.006;8.514;2023-04-15T02:25:58;5.07;;;4.67;;
7527;SDS011;3805;49.006;8.514;2023-04-15T02:28:47;4.67;;;4.27;;
7527;SDS011;3805;49.006;8.514;2023-04-15T02:31:37;4.97;;;4.30;;
7527;SDS011;3805;49.006;8.514;2023-04-15T02:34:28;6.00;;;4.83;;
7527;SDS011;3805;49.006;8.514;2023-04-15T02:37:17;6.70;;;4.50;;
7527;SDS011;3805;49.006;8.514;2023-04-15T02:40:06;9.00;;;4.60;;
7527;SDS011;3805;49.006;8.514;2023-04-15T02:42:57;4.50;;;4.10;;
7527;SDS011;3805;49.006;8.514;2023-04-15T02:45:46;6.53;;;4.70;;
7527;SDS011;3805;49.006;8.514;2023-04-15T02:48:35;6.53;;;4.37;;
7527;SDS011;3805;49.006;8.514;2023-04-15T02:51:25;5.37;;;4.40;;
7527;SDS011;3805;49.006;8.514;2023-04-15T02:54:18;4.63;;;4.27;;
7527;SDS011;3805;49.006;8.514;2023-04-15T02:57:08;7.43;;;4.83;;
7527;SDS011;3805;49.006;8.514;2023-04-15T02:59:57;5.20;;;4.10;;
7527;SDS011;3805;49.006;8.514;2023-04-15T03:02:46;7.53;;;5.20;;
7527;SDS011;3805;49.006;8.514;2023-04-15T03:05:38;8.80;;;5.83;;
7527;SDS011;3805;49.006;8.514;2023-04-15T03:08:28;5.60;;;5.10;;
7527;SDS011;3805;49.006;8.514;2023-04-15T03:11:16;5.13;;;4.63;;
7527;SDS011;3805;49.006;8.514;2023-04-15T03:14:05;7.20;;;5.33;;
7527;SDS011;3805;49.006;8.514;2023-04-15T03:16:54;4.93;;;4.50;;
7527;SDS011;3805;49.006;8.514;2023-04-15T03:19:42;6.23;;;4.93;;
7527;SDS011;3805;49.006;8.514;2023-04-15T03:22:31;5.53;;;4.97;;
7527;SDS011;3805;49.006;8.514;2023-04-15T03:25:21;7.30;;;5.10;;
7527;SDS011;3805;49.006;8.514;2023-04-15T03:28:09;6.53;;;5.47;;
7527;SDS011;3805;49.006;8.514;2023-04-15T03:30:58;5.50;;;5.00;;
7527;SDS011;3805;49.006;8.514;2023-04-15T03:33:47;5.47;;;5.00;;
7527;SDS011;3805;49.006;8.514;2023-04-15T03:36:36;6.53;;;5.67;;
7527;SDS011;3805;49.006;8.514;2023-04-15T03:39:24;8.17;;;6.27;;
7527;SDS011;3805;49.006;8.514;2023-04-15T03:42:14;6.37;;;5.80;;
7527;SDS011;3805;49.006;8.514;2023-04-15T03:45:03;6.20;;;5.60;;
7527;SDS011;3805;49.006;8.514;2023-04-15T03:47:53;6.80;;;6.10;;
7527;SDS011;3805;49.006;8.514;2023-04-15T03:50:43;8.73;;;6.03;;
7527;SDS011;3805;49.006;8.514;2023-04-15T03:53:32;6.40;;;5.80;;
7527;SDS011;3805;49.006;8.514;2023-04-15T03:56:20;6.50;;;5.70;;
7527;SDS011;3805;49.006;8.514;2023-04-15T03:59:10;7.27;;;5.50;;
7527;SDS011;3805;49.006;8.514;2023-04-15T04:01:59;6.37;;;5.77;;
7527;SDS011;3805;49.006;8.514;2023-04-15T04:04:47;6.67;;;5.93;;
7527;SDS011;3805;49.006;8.514;2023-04-15T04:07:36;6.10;;;5.40;;
7527;SDS011;3805;49.006;8.514;2023-04-15T04:10:25;6.63;;;6.03;;
7527;SDS011;3805;49.006;8.514;2023-04-15T04:13:13;6.97;;;5.50;;
7527;SDS011;3805;49.006;8.514;2023-04-15T04:16:03;7.83;;;5.67;;
7527;SDS011;3805;49.006;8.514;2023-04-15T04:18:53;5.47;;;5.00;;
7527;SDS011;3805;49.006;8.514;2023-04-15T04:21:41;11.70;;;5.60;;
7527;SDS011;3805;49.006;8.514;2023-04-15T04:24:30;7.60;;;5.00;;
7527;SDS011;3805;49.006;8.514;2023-04-15T04:27:18;6.17;;;5.67;;
7527;SDS011;3805;49.006;8.514;2023-04-15T04:30:07;7.20;;;5.50;;
7527;SDS011;3805;49.006;8.514;2023-04-15T04:32:57;5.47;;;4.93;;
7527;SDS011;3805;49.006;8.514;2023-04-15T04:35:46;5.87;;;5.17;;
7527;SDS011;3805;49.006;8.514;2023-04-15T04:38:34;6.63;;;5.90;;
7527;SDS011;3805;49.006;8.514;2023-04-15T04:41:23;6.63;;;6.03;;
7527;SDS011;3805;49.006;8.514;2023-04-15T04:44:12;7.37;;;5.87;;
7527;SDS011;3805;49.006;8.514;2023-04-15T04:47:00;8.03;;;6.03;;
7527;SDS011;3805;49.006;8.514;2023-04-15T04:49:50;7.97;;;5.50;;
7527;SDS011;3805;49.006;8.514;2023-04-15T04:52:39;6.43;;;5.00;;
7527;SDS011;3805;49.006;8.514;2023-04-15T04:55:27;6.63;;;5.77;;
7527;SDS011;3805;49.006;8.514;2023-04-15T04:58:16;6.13;;;5.53;;
7527;SDS011;3805;49.006;8.514;2023-04-15T05:01:04;7.73;;;6.80;;
7527;SDS011;3805;49.006;8.514;2023-04-15T05:03:53;10.00;;;5.97;;
7527;SDS011;3805;49.006;8.514;2023-04-15T05:06:44;7.33;;;5.90;;
7527;SDS011;3805;49.006;8.514;2023-04-15T05:09:32;5.97;;;5.33;;
7527;SDS011;3805;49.006;8.514;2023-04-15T05:12:22;8.03;;;5.87;;
7527;SDS011;3805;49.006;8.514;2023-04-15T05:15:11;9.90;;;6.00;;
7527;SDS011;3805;49.006;8.514;2023-04-15T05:17:59;6.30;;;5.33;;
7527;SDS011;3805;49.006;8.514;2023-04-15T05:20:48;7.23;;;5.60;;
7527;SDS011;3805;49.006;8.514;2023-04-15T05:23:38;6.27;;;5.67;;
7527;SDS011;3805;49.006;8.514;2023-04-15T05:26:27;5.43;;;4.93;;
7527;SDS011;3805;49.006;8.514;2023-04-15T05:29:15;6.70;;;5.20;;
7527;SDS011;3805;49.006;8.514;2023-04-15T05:32:04;6.10;;;5.30;;
7527;SDS011;3805;49.006;8.514;2023-04-15T05:34:53;9.03;;;5.70;;
7527;SDS011;3805;49.006;8.514;2023-04-15T05:37:42;5.70;;;5.30;;
7527;SDS011;3805;49.006;8.514;2023-04-15T05:40:32;7.10;;;5.30;;
7527;SDS011;3805;49.006;8.514;2023-04-15T05:43:20;9.37;;;4.93;;
7527;SDS011;3805;49.006;8.514;2023-04-15T05:46:09;6.07;;;5.47;;
7527;SDS011;3805;49.006;8.514;2023-04-15T05:48:58;4.77;;;4.37;;
7527;SDS011;3805;49.006;8.514;2023-04-15T05:51:47;8.20;;;5.23;;
7527;SDS011;3805;49.006;8.514;2023-04-15T05:54:35;6.53;;;5.40;;
7527;SDS011;3805;49.006;8.514;2023-04-15T05:57:26;10.20;;;5.23;;
7527;SDS011;3805;49.006;8.514;2023-04-15T06:00:15;6.13;;;4.87;;
7527;SDS011;3805;49.006;8.514;2023-04-15T06:03:03;5.80;;;5.30;;
7527;SDS011;3805;49.006;8.514;2023-04-15T06:05:52;6.00;;;5.10;;
7527;SDS011;3805;49.006;8.514;2023-04-15T06:08:40;4.97;;;4.57;;
7527;SDS011;3805;49.006;8.514;2023-04-15T06:11:29;6.53;;;5.47;;
7527;SDS011;3805;49.006;8.514;2023-04-15T06:14:19;5.97;;;5.47;;
7527;SDS011;3805;49.006;8.514;2023-04-15T06:17:08;5.73;;;5.03;;
7527;SDS011;3805;49.006;8.514;2023-04-15T06:19:56;6.07;;;5.47;;
7527;SDS011;3805;49.006;8.514;2023-04-15T06:22:45;6.40;;;5.27;;
7527;SDS011;3805;49.006;8.514;2023-04-15T06:25:33;6.50;;;5.93;;
7527;SDS011;3805;49.006;8.514;2023-04-15T06:28:22;5.43;;;4.77;;
7527;SDS011;3805;49.006;8.514;2023-04-15T06:31:12;5.10;;;4.60;;
7527;SDS011;3805;49.006;8.514;2023-04-15T06:34:01;8.20;;;5.50;;
7527;SDS011;3805;49.006;8.514;2023-04-15T06:36:49;5.80;;;5.20;;
7527;SDS011;3805;49.006;8.514;2023-04-15T06:39:38;5.60;;;5.10;;
7527;SDS011;3805;49.006;8.514;2023-04-15T06:42:27;5.87;;;5.30;;
7527;SDS011;3805;49.006;8.514;2023-04-15T06:45:15;8.33;;;5.20;;
7527;SDS011;3805;49.006;8.514;2023-04-15T06:48:05;6.13;;;5.53;;
7527;SDS011;3805;49.006;8.514;2023-04-15T06:50:54;6.60;;;4.90;;
7527;SDS011;3805;49.006;8.514;2023-04-15T06:53:44;5.87;;;5.37;;
7527;SDS011;3805;49.006;8.514;2023-04-15T06:56:32;5.47;;;4.97;;
7527;SDS011;3805;49.006;8.514;2023-04-15T06:59:21;6.57;;;4.70;;
7527;SDS011;3805;49.006;8.514;2023-04-15T07:02:10;6.60;;;5.17;;
7527;SDS011;3805;49.006;8.514;2023-04-15T07:05:01;12.47;;;5.07;;
7527;SDS011;3805;49.006;8.514;2023-04-15T07:07:50;4.57;;;4.23;;
7527;SDS011;3805;49.006;8.514;2023-04-15T07:10:39;4.53;;;4.23;;
7527;SDS011;3805;49.006;8.514;2023-04-15T07:13:29;4.83;;;4.33;;
7527;SDS011;3805;49.006;8.514;2023-04-15T07:16:18;4.70;;;4.23;;
7527;SDS011;3805;49.006;8.514;2023-04-15T07:19:07;5.20;;;4.57;;
7527;SDS011;3805;49.006;8.514;2023-04-15T07:21:57;4.30;;;4.00;;
7527;SDS011;3805;49.006;8.514;2023-04-15T07:24:46;5.80;;;4.90;;
7527;SDS011;3805;49.006;8.514;2023-04-15T07:27:34;8.13;;;5.10;;
7527;SDS011;3805;49.006;8.514;2023-04-15T07:30:22;6.07;;;4.33;;
7527;SDS011;3805;49.006;8.514;2023-04-15T07:33:11;4.70;;;4.23;;
7527;SDS011;3805;49.006;8.514;2023-04-15T07:35:59;5.20;;;4.10;;
7527;SDS011;3805;49.006;8.514;2023-04-15T07:38:51;6.20;;;4.20;;
7527;SDS011;3805;49.006;8.514;2023-04-15T07:41:39;6.80;;;4.50;;
7527;SDS011;3805;49.006;8.514;2023-04-15T07:44:28;4.83;;;4.00;;
7527;SDS011;3805;49.006;8.514;2023-04-15T07:47:17;6.77;;;3.70;;
7527;SDS011;3805;49.006;8.514;2023-04-15T07:50:05;5.77;;;3.50;;
7527;SDS011;3805;49.006;8.514;2023-04-15T07:52:54;4.67;;;3.33;;
7527;SDS011;3805;49.006;8.514;2023-04-15T07:55:45;4.83;;;3.43;;
7527;SDS011;3805;49.006;8.514;2023-04-15T07:58:33;3.87;;;3.67;;
7527;SDS011;3805;49.006;8.514;2023-04-15T08:01:22;4.70;;;4.00;;
7527;SDS011;3805;49.006;8.514;2023-04-15T08:04:10;9.30;;;4.40;;
7527;SDS011;3805;49.006;8.514;2023-04-15T08:06:59;6.07;;;5.30;;
7527;SDS011;3805;49.006;8.514;2023-04-15T08:09:48;5.13;;;3.67;;
7527;SDS011;3805;49.006;8.514;2023-04-15T08:12:38;8.73;;;4.10;;
7527;SDS011;3805;49.006;8.514;2023-04-15T08:15:26;3.50;;;3.20;;
7527;SDS011;3805;49.006;8.514;2023-04-15T08:18:15;4.53;;;4.13;;
7527;SDS011;3805;49.006;8.514;2023-04-15T08:21:03;6.10;;;3.43;;
7527;SDS011;3805;49.006;8.514;2023-04-15T08:23:52;5.80;;;3.80;;
7527;SDS011;3805;49.006;8.514;2023-04-15T08:26:44;4.10;;;3.77;;
7527;SDS011;3805;49.006;8.514;2023-04-15T08:29:34;5.40;;;4.13;;
7527;SDS011;3805;49.006;8.514;2023-04-15T08:32:23;4.03;;;3.60;;
7527;SDS011;3805;49.006;8.514;2023-04-15T08:35:12;4.10;;;3.70;;
7527;SDS011;3805;49.006;8.514;2023-04-15T08:38:01;4.90;;;3.90;;
7527;SDS011;3805;49.006;8.514;2023-04-15T08:40:49;5.87;;;3.27;;
7527;SDS011;3805;49.006;8.514;2023-04-15T08:43:40;4.03;;;3.63;;
7527;SDS011;3805;49.006;8.514;2023-04-15T08:46:35;4.63;;;4.20;;
7527;SDS011;3805;49.006;8.514;2023-04-15T08:49:25;3.37;;;3.00;;
7527;SDS011;3805;49.006;8.514;2023-04-15T08:52:14;4.17;;;3.63;;
7527;SDS011;3805;49.006;8.514;2023-04-15T08:55:03;6.00;;;3.77;;
7527;SDS011;3805;49.006;8.514;2023-04-15T08:57:52;4.87;;;3.67;;
7527;SDS011;3805;49.006;8.514;2023-04-15T09:00:41;8.33;;;4.13;;
7527;SDS011;3805;49.006;8.514;2023-04-15T09:03:31;5.97;;;4.23;;
7527;SDS011;3805;49.006;8.514;2023-04-15T09:06:20;7.83;;;3.80;;
7527;SDS011;3805;49.006;8.514;2023-04-15T09:09:11;8.00;;;3.73;;
7527;SDS011;3805;49.006;8.514;2023-04-15T09:12:00;3.80;;;3.50;;
7527;SDS011;3805;49.006;8.514;2023-04-15T09:14:48;5.93;;;4.33;;
7527;SDS011;3805;49.006;8.514;2023-04-15T09:17:41;4.57;;;4.10;;
7527;SDS011;3805;49.006;8.514;2023-04-15T09:20:32;5.03;;;3.93;;
7527;SDS011;3805;49.006;8.514;2023-04-15T09:23:26;5.10;;;4.03;;
7527;SDS011;3805;49.006;8.514;2023-04-15T09:26:15;5.53;;;4.80;;
7527;SDS011;3805;49.006;8.514;2023-04-15T09:29:04;5.50;;;4.40;;
7527;SDS011;3805;49.006;8.514;2023-04-15T09:31:54;7.37;;;4.60;;
7527;SDS011;3805;49.006;8.514;2023-04-15T09:34:42;6.47;;;4.53;;
7527;SDS011;3805;49.006;8.514;2023-04-15T09:37:36;5.70;;;4.97;;
7527;SDS011;3805;49.006;8.514;2023-04-15T09:40:31;5.40;;;4.37;;
7527;SDS011;3805;49.006;8.514;2023-04-15T09:43:20;4.63;;;4.20;;
7527;SDS011;3805;49.006;8.514;2023-04-15T09:46:09;11.53;;;4.83;;
7527;SDS011;3805;49.006;8.514;2023-04-15T09:49:06;5.83;;;4.23;;
7527;SDS011;3805;49.006;8.514;2023-04-15T09:51:58;6.70;;;5.60;;
7527;SDS011;3805;49.006;8.514;2023-04-15T09:54:53;4.93;;;4.43;;
7527;SDS011;3805;49.006;8.514;2023-04-15T09:57:44;5.57;;;3.73;;
7527;SDS011;3805;49.006;8.514;2023-04-15T10:00:33;4.37;;;4.07;;
7527;SDS011;3805;49.006;8.514;2023-04-15T10:03:23;5.80;;;4.43;;
7527;SDS011;3805;49.006;8.514;2023-04-15T10:06:13;4.70;;;4.20;;
7527;SDS011;3805;49.006;8.514;2023-04-15T10:09:02;5.13;;;4.33;;
7527;SDS011;3805;49.006;8.514;2023-04-15T10:11:52;4.83;;;4.37;;
7527;SDS011;3805;49.006;8.514;2023-04-15T10:14:40;6.23;;;4.03;;
7527;SDS011;3805;49.006;8.514;2023-04-15T10:17:31;4.27;;;3.57;;
7527;SDS011;3805;49.006;8.514;2023-04-15T10:20:21;4.60;;;3.87;;
7527;SDS011;3805;49.006;8.514;2023-04-15T10:23:10;5.43;;;3.93;;
7527;SDS011;3805;49.006;8.514;2023-04-15T10:25:59;4.63;;;4.10;;
7527;SDS011;3805;49.006;8.514;2023-04-15T10:28:49;5.13;;;4.70;;
7527;SDS011;3805;49.006;8.514;2023-04-15T10:31:39;5.30;;;4.00;;
7527;SDS011;3805;49.006;8.514;2023-04-15T10:34:28;4.50;;;4.20;;
7527;SDS011;3805;49.006;8.514;2023-04-15T10:37:20;4.90;;;4.50;;
7527;SDS011;3805;49.006;8.514;2023-04-15T10:40:25;12.50;;;5.53;;
7527;SDS011;3805;49.006;8.514;2023-04-15T10:43:23;7.43;;;5.00;;
7527;SDS011;3805;49.006;8.514;2023-04-15T10:46:15;7.77;;;4.90;;
7527;SDS011;3805;49.006;8.514;2023-04-15T10:49:06;6.60;;;5.70;;
7527;SDS011;3805;49.006;8.514;2023-04-15T10:51:57;7.73;;;6.00;;
7527;SDS011;3805;49.006;8.514;2023-04-15T10:54:46;5.10;;;4.57;;
7527;SDS011;3805;49.006;8.514;2023-04-15T10:57:37;7.20;;;5.67;;
7527;SDS011;3805;49.006;8.514;2023-04-15T11:00:27;5.50;;;4.70;;
7527;SDS011;3805;49.006;8.514;2023-04-15T11:03:19;5.50;;;4.73;;
7527;SDS011;3805;49.006;8.514;2023-04-15T11:06:25;4.00;;;3.70;;
7527;SDS011;3805;49.006;8.514;2023-04-15T11:09:31;7.27;;;5.20;;
7527;SDS011;3805;49.006;8.514;2023-04-15T11:12:20;5.77;;;4.63;;
7527;SDS011;3805;49.006;8.514;2023-04-15T11:15:24;5.63;;;5.00;;
7527;SDS011;3805;49.006;8.514;2023-04-15T11:18:16;8.70;;;5.63;;
7527;SDS011;3805;49.006;8.514;2023-04-15T11:21:06;8.10;;;6.00;;
7527;SDS011;3805;49.006;8.514;2023-04-15T11:23:55;6.73;;;5.43;;
7527;SDS011;3805;49.006;8.514;2023-04-15T11:26:44;8.03;;;5.40;;
7527;SDS011;3805;49.006;8.514;2023-04-15T11:29:32;5.43;;;4.93;;
7527;SDS011;3805;49.006;8.514;2023-04-15T11:32:21;8.50;;;4.93;;
7527;SDS011;3805;49.006;8.514;2023-04-15T11:35:11;6.07;;;5.30;;
7527;SDS011;3805;49.006;8.514;2023-04-15T11:38:01;11.80;;;6.37;;
7527;SDS011;3805;49.006;8.514;2023-04-15T11:40:50;8.13;;;6.27;;
7527;SDS011;3805;49.006;8.514;2023-04-15T11:43:39;7.80;;;5.20;;
7527;SDS011;3805;49.006;8.514;2023-04-15T11:46:28;6.17;;;5.03;;
7527;SDS011;3805;49.006;8.514;2023-04-15T11:49:27;5.93;;;5.30;;
7527;SDS011;3805;49.006;8.514;2023-04-15T11:52:17;5.00;;;4.57;;
7527;SDS011;3805;49.006;8.514;2023-04-15T11:55:06;9.13;;;5.70;;
7527;SDS011;3805;49.006;8.514;2023-04-15T11:58:05;5.40;;;5.00;;
7527;SDS011;3805;49.006;8.514;2023-04-15T12:00:56;5.07;;;4.67;;
7527;SDS011;3805;49.006;8.514;2023-04-15T12:03:46;5.33;;;4.83;;
7527;SDS011;3805;49.006;8.514;2023-04-15T12:06:36;5.23;;;4.73;;
7527;SDS011;3805;49.006;8.514;2023-04-15T12:09:26;7.50;;;4.87;;
7527;SDS011;3805;49.006;8.514;2023-04-15T12:12:17;6.17;;;5.17;;
7527;SDS011;3805;49.006;8.514;2023-04-15T12:15:08;6.27;;;4.67;;
7527;SDS011;3805;49.006;8.514;2023-04-15T12:17:57;7.47;;;5.30;;
7527;SDS011;3805;49.006;8.514;2023-04-15T12:20:47;7.63;;;5.73;;
7527;SDS011;3805;49.006;8.514;2023-04-15T12:23:36;6.40;;;5.10;;
7527;SDS011;3805;49.006;8.514;2023-04-15T12:26:27;5.70;;;5.20;;
7527;SDS011;3805;49.006;8.514;2023-04-15T12:29:16;6.10;;;5.50;;
7527;SDS011;3805;49.006;8.514;2023-04-15T12:32:05;5.80;;;5.30;;
7527;SDS011;3805;49.006;8.514;2023-04-15T12:34:55;5.97;;;5.13;;
7527;SDS011;3805;49.006;8.514;2023-04-15T12:37:44;7.90;;;5.53;;
7527;SDS011;3805;49.006;8.514;2023-04-15T12:40:32;5.60;;;5.13;;
7527;SDS011;3805;49.006;8.514;2023-04-15T12:43:22;7.07;;;6.37;;
7527;SDS011;3805;49.006;8.514;2023-04-15T12:46:11;5.23;;;4.73;;
7527;SDS011;3805;49.006;8.514;2023-04-15T12:49:00;6.33;;;5.13;;
7527;SDS011;3805;49.006;8.514;2023-04-15T12:51:49;4.43;;;4.07;;
7527;SDS011;3805;49.006;8.514;2023-04-15T12:54:38;5.30;;;4.80;;
7527;SDS011;3805;49.006;8.514;2023-04-15T12:57:27;3.80;;;3.40;;
7527;SDS011;3805;49.006;8.514;2023-04-15T13:00:17;3.90;;;3.60;;
7527;SDS011;3805;49.006;8.514;2023-04-15T13:03:05;3.97;;;3.67;;
7527;SDS011;3805;49.006;8.514;2023-04-15T13:05:54;4.27;;;3.90;;
7527;SDS011;3805;49.006;8.514;2023-04-15T13:08:43;3.73;;;3.40;;
7527;SDS011;3805;49.006;8.514;2023-04-15T13:11:44;4.43;;;4.03;;
7527;SDS011;3805;49.006;8.514;2023-04-15T13:14:32;4.30;;;3.83;;
7527;SDS011;3805;49.006;8.514;2023-04-15T13:17:22;4.30;;;3.90;;
7527;SDS011;3805;49.006;8.514;2023-04-15T13:20:11;4.17;;;3.87;;
7527;SDS011;3805;49.006;8.514;2023-04-15T13:22:59;5.23;;;3.83;;
7527;SDS011;3805;49.006;8.514;2023-04-15T13:25:48;4.33;;;4.03;;
7527;SDS011;3805;49.006;8.514;2023-04-15T13:28:36;5.80;;;4.20;;
7527;SDS011;3805;49.006;8.514;2023-04-15T13:31:25;4.10;;;3.80;;
7527;SDS011;3805;49.006;8.514;2023-04-15T13:34:15;4.77;;;4.10;;
7527;SDS011;3805;49.006;8.514;2023-04-15T13:37:07;4.43;;;4.00;;
7527;SDS011;3805;49.006;8.514;2023-04-15T13:39:56;4.03;;;3.73;;
7527;SDS011;3805;49.006;8.514;2023-04-15T13:42:44;4.67;;;4.27;;
7527;SDS011;3805;49.006;8.514;2023-04-15T13:45:33;8.10;;;4.50;;
7527;SDS011;3805;49.006;8.514;2023-04-15T13:48:22;4.80;;;4.40;;
7527;SDS011;3805;49.006;8.514;2023-04-15T13:51:12;5.03;;;4.30;;
7527;SDS011;3805;49.006;8.514;2023-04-15T13:54:00;6.60;;;4.73;;
7527;SDS011;3805;49.006;8.514;2023-04-15T13:56:49;5.60;;;4.67;;
7527;SDS011;3805;49.006;8.514;2023-04-15T13:59:38;4.23;;;3.93;;
7527;SDS011;3805;49.006;8.514;2023-04-15T14:02:27;4.60;;;4.30;;
7527;SDS011;3805;49.006;8.514;2023-04-15T14:05:15;5.73;;;4.90;;
7527;SDS011;3805;49.006;8.514;2023-04-15T14:08:06;5.60;;;4.27;;
7527;SDS011;3805;49.006;8.514;2023-04-15T14:10:54;6.70;;;3.97;;
7527;SDS011;3805;49.006;8.514;2023-04-15T14:13:43;5.57;;;3.60;;
7527;SDS011;3805;49.006;8.514;2023-04-15T14:16:32;9.20;;;4.03;;
7527;SDS011;3805;49.006;8.514;2023-04-15T14:19:21;4.57;;;3.67;;
7527;SDS011;3805;49.006;8.514;2023-04-15T14:22:09;3.97;;;3.67;;
7527;SDS011;3805;49.006;8.514;2023-04-15T14:24:59;14.77;;;5.40;;
7527;SDS011;3805;49.006;8.514;2023-04-15T14:27:52;5.47;;;3.63;;
7527;SDS011;3805;49.006;8.514;2023-04-15T14:30:41;7.77;;;3.63;;
7527;SDS011;3805;49.006;8.514;2023-04-15T14:33:30;4.37;;;3.20;;
7527;SDS011;3805;49.006;8.514;2023-04-15T14:36:19;3.50;;;3.20;;
7527;SDS011;3805;49.006;8.514;2023-04-15T14:39:08;4.90;;;3.83;;
7527;SDS011;3805;49.006;8.514;2023-04-15T14:41:58;3.30;;;3.00;;
7527;SDS011;3805;49.006;8.514;2023-04-15T14:44:46;3.57;;;3.27;;
7527;SDS011;3805;49.006;8.514;2023-04-15T14:47:35;4.90;;;3.50;;
7527;SDS011;3805;49.006;8.514;2023-04-15T14:50:23;4.77;;;3.03;;
7527;SDS011;3805;49.006;8.514;2023-04-15T14:53:12;3.27;;;3.07;;
7527;SDS011;3805;49.006;8.514;2023-04-15T14:56:00;3.30;;;2.90;;
7527;SDS011;3805;49.006;8.514;2023-04-15T14:58:50;5.93;;;2.80;;
7527;SDS011;3805;49.006;8.514;2023-04-15T15:01:40;3.40;;;2.70;;
7527;SDS011;3805;49.006;8.514;2023-04-15T15:04:28;3.00;;;2.30;;
7527;SDS011;3805;49.006;8.514;2023-04-15T15:07:19;2.70;;;2.47;;
7527;SDS011;3805;49.006;8.514;2023-04-15T15:10:07;2.47;;;2.27;;
7527;SDS011;3805;49.006;8.514;2023-04-15T15:12:56;3.40;;;2.07;;
7527;SDS011;3805;49.006;8.514;2023-04-15T15:15:46;2.33;;;2.00;;
7527;SDS011;3805;49.006;8.514;2023-04-15T15:18:38;2.77;;;1.90;;
7527;SDS011;3805;49.006;8.514;2023-04-15T15:21:26;3.80;;;1.70;;
7527;SDS011;3805;49.006;8.514;2023-04-15T15:24:15;2.23;;;1.67;;
7527;SDS011;3805;49.006;8.514;2023-04-15T15:27:04;2.13;;;1.93;;
7527;SDS011;3805;49.006;8.514;2023-04-15T15:29:52;1.63;;;1.53;;
7527;SDS011;3805;49.006;8.514;2023-04-15T15:32:43;3.40;;;1.73;;
7527;SDS011;3805;49.006;8.514;2023-04-15T15:35:31;1.60;;;1.50;;
7527;SDS011;3805;49.006;8.514;2023-04-15T15:38:20;2.93;;;1.80;;
7527;SDS011;3805;49.006;8.514;2023-04-15T15:41:09;1.50;;;1.40;;
7527;SDS011;3805;49.006;8.514;2023-04-15T15:43:58;1.60;;;1.50;;
7527;SDS011;3805;49.006;8.514;2023-04-15T15:46:46;2.57;;;1.70;;
7527;SDS011;3805;49.006;8.514;2023-04-15T15:49:36;1.57;;;1.40;;
7527;SDS011;3805;49.006;8.514;2023-04-15T15:52:25;1.83;;;1.70;;
7527;SDS011;3805;49.006;8.514;2023-04-15T15:55:14;6.97;;;4.27;;
7527;SDS011;3805;49.006;8.514;2023-04-15T15:58:02;2.60;;;2.40;;
7527;SDS011;3805;49.006;8.514;2023-04-15T16:00:50;2.70;;;2.43;;
7527;SDS011;3805;49.006;8.514;2023-04-15T16:03:39;3.27;;;2.00;;
7527;SDS011;3805;49.006;8.514;2023-04-15T16:06:30;2.87;;;2.53;;
7527;SDS011;3805;49.006;8.514;2023-04-15T16:09:21;2.13;;;2.03;;
7527;SDS011;3805;49.006;8.514;2023-04-15T16:12:09;3.80;;;2.30;;
7527;SDS011;3805;49.006;8.514;2023-04-15T16:14:58;2.90;;;2.70;;
7527;SDS011;3805;49.006;8.514;2023-04-15T16:17:46;3.23;;;2.17;;
7527;SDS011;3805;49.006;8.514;2023-04-15T16:20:35;3.77;;;2.47;;
7527;SDS011;3805;49.006;8.514;2023-04-15T16:23:26;2.53;;;2.33;;
7527;SDS011;3805;49.006;8.514;2023-04-15T16:26:15;2.63;;;2.47;;
7527;SDS011;3805;49.006;8.514;2023-04-15T16:29:03;2.57;;;2.37;;
7527;SDS011;3805;49.006;8.514;2023-04-15T16:31:53;2.60;;;2.40;;
7527;SDS011;3805;49.006;8.514;2023-04-15T16:34:42;2.30;;;2.10;;
7527;SDS011;3805;49.006;8.514;2023-04-15T16:37:30;2.67;;;2.47;;
7527;SDS011;3805;49.006;8.514;2023-04-15T16:40:21;2.57;;;2.40;;
7527;SDS011;3805;49.006;8.514;2023-04-15T16:43:10;2.70;;;2.50;;
7527;SDS011;3805;49.006;8.514;2023-04-15T16:45:58;2.43;;;2.23;;
7527;SDS011;3805;49.006;8.514;2023-04-15T16:48:47;3.00;;;2.60;;
7527;SDS011;3805;49.006;8.514;2023-04-15T16:51:36;2.63;;;2.43;;
7527;SDS011;3805;49.006;8.514;2023-04-15T16:54:24;2.57;;;2.37;;
7527;SDS011;3805;49.006;8.514;2023-04-15T16:57:16;3.23;;;3.00;;
7527;SDS011;3805;49.006;8.514;2023-04-15T17:00:05;3.87;;;3.50;;
7527;SDS011;3805;49.006;8.514;2023-04-15T17:02:54;4.13;;;2.80;;
7527;SDS011;3805;49.006;8.514;2023-04-15T17:05:44;3.50;;;2.90;;
7527;SDS011;3805;49.006;8.514;2023-04-15T17:08:32;3.60;;;3.00;;
7527;SDS011;3805;49.006;8.514;2023-04-15T17:11:21;3.20;;;2.90;;
7527;SDS011;3805;49.006;8.514;2023-04-15T17:14:11;3.90;;;3.60;;
7527;SDS011;3805;49.006;8.514;2023-04-15T17:17:00;3.83;;;3.00;;
7527;SDS011;3805;49.006;8.514;2023-04-15T17:19:48;3.80;;;3.00;;
7527;SDS011;3805;49.006;8.514;2023-04-15T17:22:37;3.23;;;3.03;;
7527;SDS011;3805;49.006;8.514;2023-04-15T17:25:25;7.20;;;3.97;;
7527;SDS011;3805;49.006;8.514;2023-04-15T17:28:14;3.70;;;3.40;;
7527;SDS011;3805;49.006;8.514;2023-04-15T17:31:04;3.50;;;3.20;;
7527;SDS011;3805;49.006;8.514;2023-04-15T17:33:53;4.33;;;4.00;;